sensor_id;sensor_type;location;lat;lon;timestamp;pressure;altitude;pressure_sealevel;temperature;humidity
77106;BME280;66057;54.718;18.426;2023-06-14T00:00:43;101738.06;;;13.23;79.29
77106;BME280;66057;54.718;18.426;2023-06-14T00:03:29;101736.56;;;13.10;79.52
77106;BME280;66057;54.718;18.426;2023-06-14T00:05:57;101735.88;;;13.13;79.81
77106;BME280;66057;54.718;18.426;2023-06-14T00:08:23;101726.44;;;13.13;79.52
77106;BME280;66057;54.718;18.426;2023-06-14T00:10:50;101731.38;;;13.08;79.97
77106;BME280;66057;54.718;18.426;2023-06-14T00:13:15;101731.88;;;13.01;79.95
77106;BME280;66057;54.718;18.426;2023-06-14T00:15:41;101736.31;;;13.04;79.86
77106;BME280;66057;54.718;18.426;2023-06-14T00:18:08;101733.75;;;13.04;80.13
77106;BME280;66057;54.718;18.426;2023-06-14T00:20:36;101738.38;;;13.11;80.29
77106;BME280;66057;54.718;18.426;2023-06-14T00:23:02;101739.75;;;13.04;80.21
77106;BME280;66057;54.718;18.426;2023-06-14T00:25:28;101734.59;;;13.04;79.90
77106;BME280;66057;54.718;18.426;2023-06-14T00:27:55;101732.31;;;13.10;79.84
77106;BME280;66057;54.718;18.426;2023-06-14T00:30:21;101730.13;;;13.18;79.89
77106;BME280;66057;54.718;18.426;2023-06-14T00:32:47;101724.66;;;13.12;79.99
77106;BME280;66057;54.718;18.426;2023-06-14T00:35:13;101732.97;;;13.06;80.47
77106;BME280;66057;54.718;18.426;2023-06-14T00:37:39;101729.44;;;13.04;80.03
77106;BME280;66057;54.718;18.426;2023-06-14T00:40:06;101723.34;;;13.02;80.32
77106;BME280;66057;54.718;18.426;2023-06-14T00:42:32;101724.00;;;12.98;80.36
77106;BME280;66057;54.718;18.426;2023-06-14T00:44:59;101719.81;;;12.83;79.97
77106;BME280;66057;54.718;18.426;2023-06-14T00:47:25;101719.00;;;12.84;80.50
77106;BME280;66057;54.718;18.426;2023-06-14T00:49:53;101714.81;;;12.68;80.58
77106;BME280;66057;54.718;18.426;2023-06-14T00:52:19;101723.78;;;12.76;80.53
77106;BME280;66057;54.718;18.426;2023-06-14T00:54:45;101733.31;;;12.77;80.53
77106;BME280;66057;54.718;18.426;2023-06-14T00:57:12;101721.88;;;12.72;80.45
77106;BME280;66057;54.718;18.426;2023-06-14T00:59:42;101724.91;;;12.81;81.11
77106;BME280;66057;54.718;18.426;2023-06-14T01:02:09;101722.69;;;12.71;80.96
77106;BME280;66057;54.718;18.426;2023-06-14T01:04:34;101715.69;;;12.68;80.64
77106;BME280;66057;54.718;18.426;2023-06-14T01:12:41;101710.91;;;12.76;80.48
77106;BME280;66057;54.718;18.426;2023-06-14T01:15:10;101710.16;;;12.79;80.71
77106;BME280;66057;54.718;18.426;2023-06-14T01:17:39;101717.38;;;12.86;81.00
77106;BME280;66057;54.718;18.426;2023-06-14T01:20:07;101709.88;;;12.73;81.14
77106;BME280;66057;54.718;18.426;2023-06-14T01:22:35;101711.06;;;12.79;80.88
77106;BME280;66057;54.718;18.426;2023-06-14T01:25:01;101694.59;;;12.77;80.94
77106;BME280;66057;54.718;18.426;2023-06-14T01:27:27;101709.72;;;12.87;80.54
77106;BME280;66057;54.718;18.426;2023-06-14T01:29:58;101694.91;;;12.83;80.54
77106;BME280;66057;54.718;18.426;2023-06-14T01:32:26;101706.44;;;12.91;80.54
77106;BME280;66057;54.718;18.426;2023-06-14T01:34:53;101711.03;;;12.97;80.96
77106;BME280;66057;54.718;18.426;2023-06-14T01:37:20;101693.97;;;13.00;80.88
77106;BME280;66057;54.718;18.426;2023-06-14T01:39:48;101704.16;;;12.97;81.28
77106;BME280;66057;54.718;18.426;2023-06-14T01:42:16;101702.38;;;12.96;81.21
77106;BME280;66057;54.718;18.426;2023-06-14T01:44:42;101694.34;;;13.08;81.67
77106;BME280;66057;54.718;18.426;2023-06-14T01:47:09;101703.41;;;13.18;81.63
77106;BME280;66057;54.718;18.426;2023-06-14T01:49:35;101686.97;;;13.16;81.18
77106;BME280;66057;54.718;18.426;2023-06-14T01:52:01;101691.19;;;13.14;81.15
77106;BME280;66057;54.718;18.426;2023-06-14T01:54:27;101692.94;;;13.15;81.68
77106;BME280;66057;54.718;18.426;2023-06-14T01:56:53;101690.06;;;13.08;81.43
77106;BME280;66057;54.718;18.426;2023-06-14T01:59:18;101688.56;;;12.94;81.72
77106;BME280;66057;54.718;18.426;2023-06-14T02:01:44;101704.75;;;12.92;82.20
77106;BME280;66057;54.718;18.426;2023-06-14T02:04:11;101701.84;;;12.84;82.05
77106;BME280;66057;54.718;18.426;2023-06-14T02:06:37;101693.16;;;12.64;82.50
77106;BME280;66057;54.718;18.426;2023-06-14T02:09:03;101703.59;;;12.67;82.33
77106;BME280;66057;54.718;18.426;2023-06-14T02:11:29;101708.63;;;12.64;82.20
77106;BME280;66057;54.718;18.426;2023-06-14T02:13:56;101712.91;;;12.64;82.78
77106;BME280;66057;54.718;18.426;2023-06-14T02:16:22;101709.22;;;12.59;82.48
77106;BME280;66057;54.718;18.426;2023-06-14T02:18:47;101707.00;;;12.49;83.08
77106;BME280;66057;54.718;18.426;2023-06-14T02:21:14;101704.06;;;12.41;83.14
77106;BME280;66057;54.718;18.426;2023-06-14T02:23:40;101693.84;;;12.60;82.76
77106;BME280;66057;54.718;18.426;2023-06-14T02:26:06;101689.25;;;12.55;83.26
77106;BME280;66057;54.718;18.426;2023-06-14T02:28:31;101693.09;;;12.45;83.05
77106;BME280;66057;54.718;18.426;2023-06-14T02:30:57;101694.66;;;12.42;82.79
77106;BME280;66057;54.718;18.426;2023-06-14T02:33:22;101697.44;;;12.46;83.29
77106;BME280;66057;54.718;18.426;2023-06-14T02:35:49;101701.72;;;12.46;82.78
77106;BME280;66057;54.718;18.426;2023-06-14T02:38:16;101691.00;;;12.38;82.74
77106;BME280;66057;54.718;18.426;2023-06-14T02:40:41;101689.31;;;12.39;82.82
77106;BME280;66057;54.718;18.426;2023-06-14T02:43:08;101685.72;;;12.35;83.44
77106;BME280;66057;54.718;18.426;2023-06-14T02:45:34;101694.19;;;12.33;83.01
77106;BME280;66057;54.718;18.426;2023-06-14T02:47:59;101706.72;;;12.43;83.12
77106;BME280;66057;54.718;18.426;2023-06-14T02:50:25;101702.97;;;12.36;82.62
77106;BME280;66057;54.718;18.426;2023-06-14T02:52:51;101693.31;;;12.32;82.93
77106;BME280;66057;54.718;18.426;2023-06-14T02:55:18;101703.91;;;12.38;82.69
77106;BME280;66057;54.718;18.426;2023-06-14T02:57:43;101697.16;;;12.40;83.36
77106;BME280;66057;54.718;18.426;2023-06-14T03:00:10;101699.06;;;12.44;83.57
77106;BME280;66057;54.718;18.426;2023-06-14T03:02:38;101698.59;;;12.53;83.72
77106;BME280;66057;54.718;18.426;2023-06-14T03:05:04;101693.44;;;12.53;82.90
77106;BME280;66057;54.718;18.426;2023-06-14T03:07:31;101686.25;;;12.46;82.98
77106;BME280;66057;54.718;18.426;2023-06-14T03:09:58;101684.69;;;12.49;83.30
77106;BME280;66057;54.718;18.426;2023-06-14T03:12:23;101670.81;;;12.47;83.06
77106;BME280;66057;54.718;18.426;2023-06-14T03:14:49;101684.19;;;12.56;83.59
77106;BME280;66057;54.718;18.426;2023-06-14T03:17:16;101697.84;;;12.73;84.06
77106;BME280;66057;54.718;18.426;2023-06-14T03:19:43;101685.63;;;12.69;84.12
77106;BME280;66057;54.718;18.426;2023-06-14T03:22:09;101697.19;;;12.77;84.59
77106;BME280;66057;54.718;18.426;2023-06-14T03:24:37;101685.16;;;12.78;84.27
77106;BME280;66057;54.718;18.426;2023-06-14T03:27:03;101695.13;;;12.88;84.66
77106;BME280;66057;54.718;18.426;2023-06-14T03:29:29;101702.97;;;12.91;84.39
77106;BME280;66057;54.718;18.426;2023-06-14T03:32:02;101697.19;;;12.95;84.89
77106;BME280;66057;54.718;18.426;2023-06-14T03:34:28;101696.50;;;12.99;84.55
77106;BME280;66057;54.718;18.426;2023-06-14T03:36:54;101698.41;;;13.03;84.21
77106;BME280;66057;54.718;18.426;2023-06-14T03:39:20;101701.44;;;13.12;84.32
77106;BME280;66057;54.718;18.426;2023-06-14T03:41:45;101701.03;;;13.22;84.82
77106;BME280;66057;54.718;18.426;2023-06-14T03:44:15;101704.72;;;13.27;84.35
77106;BME280;66057;54.718;18.426;2023-06-14T03:46:41;101704.75;;;13.29;84.75
77106;BME280;66057;54.718;18.426;2023-06-14T03:49:07;101691.84;;;13.29;84.27
77106;BME280;66057;54.718;18.426;2023-06-14T03:51:33;101701.06;;;13.41;83.91
77106;BME280;66057;54.718;18.426;2023-06-14T03:54:01;101697.78;;;13.45;83.98
77106;BME280;66057;54.718;18.426;2023-06-14T03:56:26;101705.03;;;13.54;84.35
77106;BME280;66057;54.718;18.426;2023-06-14T03:58:52;101695.31;;;13.48;84.25
77106;BME280;66057;54.718;18.426;2023-06-14T04:01:18;101702.81;;;13.62;83.82
77106;BME280;66057;54.718;18.426;2023-06-14T04:03:44;101710.81;;;13.68;83.98
77106;BME280;66057;54.718;18.426;2023-06-14T04:06:09;101698.66;;;13.65;84.23
77106;BME280;66057;54.718;18.426;2023-06-14T04:08:35;101704.34;;;13.77;84.06
77106;BME280;66057;54.718;18.426;2023-06-14T04:11:01;101703.72;;;13.83;83.97
77106;BME280;66057;54.718;18.426;2023-06-14T04:13:27;101704.09;;;13.92;83.77
77106;BME280;66057;54.718;18.426;2023-06-14T04:15:53;101710.72;;;14.06;84.49
77106;BME280;66057;54.718;18.426;2023-06-14T04:18:19;101709.19;;;14.10;83.71
77106;BME280;66057;54.718;18.426;2023-06-14T04:20:46;101707.00;;;14.20;84.15
77106;BME280;66057;54.718;18.426;2023-06-14T04:23:14;101715.72;;;14.22;83.43
77106;BME280;66057;54.718;18.426;2023-06-14T04:25:40;101715.09;;;14.28;83.71
77106;BME280;66057;54.718;18.426;2023-06-14T04:28:06;101687.03;;;14.16;83.39
77106;BME280;66057;54.718;18.426;2023-06-14T04:30:34;101701.22;;;14.26;83.79
77106;BME280;66057;54.718;18.426;2023-06-14T04:33:01;101701.41;;;14.30;84.30
77106;BME280;66057;54.718;18.426;2023-06-14T04:35:31;101705.28;;;14.40;84.17
77106;BME280;66057;54.718;18.426;2023-06-14T04:38:02;101708.41;;;14.54;84.59
77106;BME280;66057;54.718;18.426;2023-06-14T04:40:31;101694.66;;;14.55;83.84
77106;BME280;66057;54.718;18.426;2023-06-14T04:42:58;101700.91;;;14.60;84.22
77106;BME280;66057;54.718;18.426;2023-06-14T04:45:24;101694.66;;;14.55;84.07
77106;BME280;66057;54.718;18.426;2023-06-14T04:47:59;101703.75;;;14.66;83.90
77106;BME280;66057;54.718;18.426;2023-06-14T04:50:24;101704.63;;;14.66;83.84
77106;BME280;66057;54.718;18.426;2023-06-14T04:52:50;101700.00;;;14.59;84.19
77106;BME280;66057;54.718;18.426;2023-06-14T04:55:17;101703.47;;;14.80;83.28
77106;BME280;66057;54.718;18.426;2023-06-14T04:57:44;101690.25;;;14.97;84.08
77106;BME280;66057;54.718;18.426;2023-06-14T05:00:10;101701.59;;;15.22;83.83
77106;BME280;66057;54.718;18.426;2023-06-14T05:02:37;101701.44;;;15.42;83.42
77106;BME280;66057;54.718;18.426;2023-06-14T05:05:04;101709.16;;;15.62;83.45
77106;BME280;66057;54.718;18.426;2023-06-14T05:07:34;101699.03;;;15.70;83.31
77106;BME280;66057;54.718;18.426;2023-06-14T05:10:00;101699.47;;;15.82;83.39
77106;BME280;66057;54.718;18.426;2023-06-14T05:12:26;101712.44;;;16.07;83.25
77106;BME280;66057;54.718;18.426;2023-06-14T05:14:53;101706.84;;;16.21;82.66
77106;BME280;66057;54.718;18.426;2023-06-14T05:17:19;101703.44;;;16.23;82.98
77106;BME280;66057;54.718;18.426;2023-06-14T05:19:45;101711.47;;;16.31;82.17
77106;BME280;66057;54.718;18.426;2023-06-14T05:22:11;101711.97;;;16.46;83.12
77106;BME280;66057;54.718;18.426;2023-06-14T05:24:38;101709.22;;;16.67;82.79
77106;BME280;66057;54.718;18.426;2023-06-14T05:27:04;101717.50;;;16.82;82.21
77106;BME280;66057;54.718;18.426;2023-06-14T05:29:30;101707.31;;;16.89;82.26
77106;BME280;66057;54.718;18.426;2023-06-14T05:31:56;101707.38;;;16.91;82.02
77106;BME280;66057;54.718;18.426;2023-06-14T05:34:22;101705.59;;;16.90;82.20
77106;BME280;66057;54.718;18.426;2023-06-14T05:36:48;101700.34;;;16.87;82.00
77106;BME280;66057;54.718;18.426;2023-06-14T05:39:13;101699.66;;;16.94;82.17
77106;BME280;66057;54.718;18.426;2023-06-14T05:41:39;101704.84;;;16.94;82.19
77106;BME280;66057;54.718;18.426;2023-06-14T05:44:05;101705.59;;;16.90;82.37
77106;BME280;66057;54.718;18.426;2023-06-14T05:46:31;101709.38;;;16.99;82.42
77106;BME280;66057;54.718;18.426;2023-06-14T05:48:56;101717.22;;;17.02;82.14
77106;BME280;66057;54.718;18.426;2023-06-14T05:51:22;101717.34;;;17.06;81.72
77106;BME280;66057;54.718;18.426;2023-06-14T05:53:50;101717.22;;;17.01;82.11
77106;BME280;66057;54.718;18.426;2023-06-14T05:56:17;101711.75;;;16.92;81.83
77106;BME280;66057;54.718;18.426;2023-06-14T05:58:46;101701.50;;;16.96;81.65
77106;BME280;66057;54.718;18.426;2023-06-14T06:01:13;101722.44;;;17.02;81.83
77106;BME280;66057;54.718;18.426;2023-06-14T06:03:39;101717.69;;;16.88;81.54
77106;BME280;66057;54.718;18.426;2023-06-14T06:06:04;101726.63;;;16.97;81.91
77106;BME280;66057;54.718;18.426;2023-06-14T06:08:30;101723.25;;;17.00;81.57
77106;BME280;66057;54.718;18.426;2023-06-14T06:10:56;101724.75;;;17.22;81.45
77106;BME280;66057;54.718;18.426;2023-06-14T06:13:22;101729.50;;;17.36;81.47
77106;BME280;66057;54.718;18.426;2023-06-14T06:15:48;101721.22;;;17.50;81.30
77106;BME280;66057;54.718;18.426;2023-06-14T06:18:14;101719.81;;;17.59;81.31
77106;BME280;66057;54.718;18.426;2023-06-14T06:20:40;101727.97;;;17.73;80.94
77106;BME280;66057;54.718;18.426;2023-06-14T06:23:05;101730.66;;;17.76;80.82
77106;BME280;66057;54.718;18.426;2023-06-14T06:25:31;101727.22;;;17.77;80.52
77106;BME280;66057;54.718;18.426;2023-06-14T06:27:57;101732.84;;;17.92;80.56
77106;BME280;66057;54.718;18.426;2023-06-14T06:30:23;101735.72;;;18.03;80.37
77106;BME280;66057;54.718;18.426;2023-06-14T06:32:48;101729.78;;;18.08;80.38
77106;BME280;66057;54.718;18.426;2023-06-14T06:35:14;101735.91;;;18.10;79.38
77106;BME280;66057;54.718;18.426;2023-06-14T06:37:41;101726.56;;;18.18;79.66
77106;BME280;66057;54.718;18.426;2023-06-14T06:40:07;101735.97;;;18.12;79.39
77106;BME280;66057;54.718;18.426;2023-06-14T06:42:34;101737.78;;;18.16;79.71
77106;BME280;66057;54.718;18.426;2023-06-14T06:45:00;101734.34;;;18.17;79.93
77106;BME280;66057;54.718;18.426;2023-06-14T06:47:26;101732.44;;;18.10;79.95
77106;BME280;66057;54.718;18.426;2023-06-14T06:49:52;101734.91;;;18.05;79.83
77106;BME280;66057;54.718;18.426;2023-06-14T06:52:17;101742.75;;;18.07;79.68
77106;BME280;66057;54.718;18.426;2023-06-14T06:54:45;101741.00;;;18.06;79.87
77106;BME280;66057;54.718;18.426;2023-06-14T06:57:10;101745.09;;;17.96;79.80
77106;BME280;66057;54.718;18.426;2023-06-14T06:59:36;101745.97;;;17.97;79.97
77106;BME280;66057;54.718;18.426;2023-06-14T07:02:03;101750.88;;;17.86;79.65
77106;BME280;66057;54.718;18.426;2023-06-14T07:04:29;101749.03;;;17.82;79.54
77106;BME280;66057;54.718;18.426;2023-06-14T07:06:56;101743.06;;;17.86;79.39
77106;BME280;66057;54.718;18.426;2023-06-14T07:09:22;101745.09;;;17.96;79.33
77106;BME280;66057;54.718;18.426;2023-06-14T07:11:48;101755.97;;;18.14;79.28
77106;BME280;66057;54.718;18.426;2023-06-14T07:14:13;101752.91;;;18.30;80.11
77106;BME280;66057;54.718;18.426;2023-06-14T07:16:39;101761.22;;;18.50;79.11
77106;BME280;66057;54.718;18.426;2023-06-14T07:19:06;101753.69;;;18.61;78.99
77106;BME280;66057;54.718;18.426;2023-06-14T07:21:32;101755.75;;;18.74;79.26
77106;BME280;66057;54.718;18.426;2023-06-14T07:23:58;101751.56;;;18.81;77.80
77106;BME280;66057;54.718;18.426;2023-06-14T07:26:24;101750.66;;;18.80;77.53
77106;BME280;66057;54.718;18.426;2023-06-14T07:28:50;101760.41;;;18.87;77.56
77106;BME280;66057;54.718;18.426;2023-06-14T07:31:17;101756.84;;;18.84;77.33
77106;BME280;66057;54.718;18.426;2023-06-14T07:33:45;101761.44;;;18.95;76.43
77106;BME280;66057;54.718;18.426;2023-06-14T07:36:10;101761.34;;;18.91;76.92
77106;BME280;66057;54.718;18.426;2023-06-14T07:38:37;101762.44;;;19.00;76.64
77106;BME280;66057;54.718;18.426;2023-06-14T07:41:02;101764.88;;;18.93;76.78
77106;BME280;66057;54.718;18.426;2023-06-14T07:43:28;101769.09;;;18.88;76.94
77106;BME280;66057;54.718;18.426;2023-06-14T07:45:54;101771.66;;;18.86;77.20
77106;BME280;66057;54.718;18.426;2023-06-14T07:48:20;101775.00;;;18.79;77.13
77106;BME280;66057;54.718;18.426;2023-06-14T07:50:46;101780.44;;;18.54;77.79
77106;BME280;66057;54.718;18.426;2023-06-14T07:53:12;101775.03;;;18.48;78.58
77106;BME280;66057;54.718;18.426;2023-06-14T07:55:37;101765.88;;;18.62;78.40
77106;BME280;66057;54.718;18.426;2023-06-14T07:58:04;101776.44;;;18.68;78.24
77106;BME280;66057;54.718;18.426;2023-06-14T08:00:30;101775.63;;;18.70;78.19
77106;BME280;66057;54.718;18.426;2023-06-14T08:02:56;101769.47;;;18.67;78.42
77106;BME280;66057;54.718;18.426;2023-06-14T08:05:27;101768.78;;;18.74;78.83
77106;BME280;66057;54.718;18.426;2023-06-14T08:07:53;101764.41;;;18.73;78.48
77106;BME280;66057;54.718;18.426;2023-06-14T08:10:20;101777.38;;;18.70;78.36
77106;BME280;66057;54.718;18.426;2023-06-14T08:12:46;101783.69;;;18.81;78.19
77106;BME280;66057;54.718;18.426;2023-06-14T08:15:12;101774.00;;;18.74;78.26
77106;BME280;66057;54.718;18.426;2023-06-14T08:17:37;101765.09;;;18.64;78.58
77106;BME280;66057;54.718;18.426;2023-06-14T08:20:03;101769.47;;;18.67;78.59
77106;BME280;66057;54.718;18.426;2023-06-14T08:22:33;101773.28;;;18.80;78.47
77106;BME280;66057;54.718;18.426;2023-06-14T08:25:00;101768.91;;;18.80;78.43
77106;BME280;66057;54.718;18.426;2023-06-14T08:27:27;101780.97;;;18.75;78.71
77106;BME280;66057;54.718;18.426;2023-06-14T08:29:53;101778.38;;;18.77;78.44
77106;BME280;66057;54.718;18.426;2023-06-14T08:32:19;101769.78;;;18.81;78.65
77106;BME280;66057;54.718;18.426;2023-06-14T08:34:45;101778.69;;;18.89;78.32
77106;BME280;66057;54.718;18.426;2023-06-14T08:37:11;101776.88;;;18.86;78.54
77106;BME280;66057;54.718;18.426;2023-06-14T08:39:36;101765.56;;;18.86;78.84
77106;BME280;66057;54.718;18.426;2023-06-14T08:42:03;101772.44;;;18.82;78.92
77106;BME280;66057;54.718;18.426;2023-06-14T08:44:30;101760.50;;;18.92;78.07
77106;BME280;66057;54.718;18.426;2023-06-14T08:46:56;101763.06;;;18.90;78.59
77106;BME280;66057;54.718;18.426;2023-06-14T08:49:25;101764.25;;;19.03;78.48
77106;BME280;66057;54.718;18.426;2023-06-14T08:51:58;101750.44;;;19.07;78.37
77106;BME280;66057;54.718;18.426;2023-06-14T08:54:28;101751.31;;;19.09;78.28
77106;BME280;66057;54.718;18.426;2023-06-14T08:56:58;101771.63;;;19.22;78.46
77106;BME280;66057;54.718;18.426;2023-06-14T08:59:25;101771.69;;;19.25;77.91
77106;BME280;66057;54.718;18.426;2023-06-14T09:01:53;101777.75;;;19.24;77.98
77106;BME280;66057;54.718;18.426;2023-06-14T09:04:22;101777.63;;;19.20;77.52
77106;BME280;66057;54.718;18.426;2023-06-14T09:06:49;101780.94;;;19.11;78.12
77106;BME280;66057;54.718;18.426;2023-06-14T09:09:22;101777.06;;;19.33;77.66
77106;BME280;66057;54.718;18.426;2023-06-14T09:11:50;101780.91;;;19.47;77.95
77106;BME280;66057;54.718;18.426;2023-06-14T09:14:18;101780.63;;;19.38;77.46
77106;BME280;66057;54.718;18.426;2023-06-14T09:16:45;101775.31;;;19.33;77.28
77106;BME280;66057;54.718;18.426;2023-06-14T09:19:20;101780.63;;;19.38;77.31
77106;BME280;66057;54.718;18.426;2023-06-14T09:21:47;101785.22;;;19.46;77.38
77106;BME280;66057;54.718;18.426;2023-06-14T09:24:14;101772.22;;;19.49;77.02
77106;BME280;66057;54.718;18.426;2023-06-14T09:26:40;101774.13;;;19.56;76.22
77106;BME280;66057;54.718;18.426;2023-06-14T09:29:06;101771.50;;;19.55;76.25
77106;BME280;66057;54.718;18.426;2023-06-14T09:31:32;101773.25;;;19.56;76.64
77106;BME280;66057;54.718;18.426;2023-06-14T09:33:58;101776.06;;;19.67;76.55
77106;BME280;66057;54.718;18.426;2023-06-14T09:36:25;101775.00;;;19.57;76.31
77106;BME280;66057;54.718;18.426;2023-06-14T09:38:59;101779.75;;;19.78;76.43
77106;BME280;66057;54.718;18.426;2023-06-14T09:41:40;101775.72;;;19.93;76.01
77106;BME280;66057;54.718;18.426;2023-06-14T09:44:07;101771.56;;;20.03;75.71
77106;BME280;66057;54.718;18.426;2023-06-14T09:46:34;101771.59;;;20.05;75.00
77106;BME280;66057;54.718;18.426;2023-06-14T09:49:02;101772.38;;;20.00;75.90
77106;BME280;66057;54.718;18.426;2023-06-14T09:51:29;101777.66;;;20.03;75.52
77106;BME280;66057;54.718;18.426;2023-06-14T09:54:02;101782.16;;;20.12;74.73
77106;BME280;66057;54.718;18.426;2023-06-14T09:56:41;101778.75;;;20.16;74.45
77106;BME280;66057;54.718;18.426;2023-06-14T09:59:10;101775.34;;;20.20;74.78
77106;BME280;66057;54.718;18.426;2023-06-14T10:01:48;101783.84;;;20.10;74.53
77106;BME280;66057;54.718;18.426;2023-06-14T10:04:15;101781.41;;;20.18;74.86
77106;BME280;66057;54.718;18.426;2023-06-14T10:06:45;101781.72;;;20.33;74.55
77106;BME280;66057;54.718;18.426;2023-06-14T10:09:12;101780.72;;;20.28;73.88
77106;BME280;66057;54.718;18.426;2023-06-14T10:11:38;101778.22;;;20.32;73.75
77106;BME280;66057;54.718;18.426;2023-06-14T10:14:10;101782.59;;;20.33;73.94
77106;BME280;66057;54.718;18.426;2023-06-14T10:16:52;101778.25;;;20.35;73.48
77106;BME280;66057;54.718;18.426;2023-06-14T10:20:05;101780.09;;;20.41;73.25
77106;BME280;66057;54.718;18.426;2023-06-14T10:22:38;101783.94;;;20.61;73.42
77106;BME280;66057;54.718;18.426;2023-06-14T10:25:07;101783.03;;;20.61;71.65
77106;BME280;66057;54.718;18.426;2023-06-14T10:27:38;101787.44;;;20.62;72.41
77106;BME280;66057;54.718;18.426;2023-06-14T10:30:04;101783.22;;;20.71;73.07
77106;BME280;66057;54.718;18.426;2023-06-14T10:32:31;101778.78;;;20.66;72.16
77106;BME280;66057;54.718;18.426;2023-06-14T10:34:59;101777.88;;;20.65;70.95
77106;BME280;66057;54.718;18.426;2023-06-14T10:37:26;101789.03;;;20.55;71.15
77106;BME280;66057;54.718;18.426;2023-06-14T10:39:52;101776.53;;;20.36;72.71
77106;BME280;66057;54.718;18.426;2023-06-14T10:42:19;101773.03;;;20.35;72.57
77106;BME280;66057;54.718;18.426;2023-06-14T10:44:45;101776.56;;;20.39;72.48
77106;BME280;66057;54.718;18.426;2023-06-14T10:47:24;101776.19;;;20.69;72.21
77106;BME280;66057;54.718;18.426;2023-06-14T10:49:55;101768.63;;;20.85;72.20
77106;BME280;66057;54.718;18.426;2023-06-14T10:52:24;101772.22;;;20.94;71.14
77106;BME280;66057;54.718;18.426;2023-06-14T10:57:36;101772.97;;;20.86;71.77
77106;BME280;66057;54.718;18.426;2023-06-14T11:00:03;101760.75;;;20.84;71.56
77106;BME280;66057;54.718;18.426;2023-06-14T11:06:12;101757.06;;;21.30;71.66
77106;BME280;66057;54.718;18.426;2023-06-14T11:09:00;101762.88;;;21.11;72.12
77106;BME280;66057;54.718;18.426;2023-06-14T11:11:32;101755.56;;;20.87;71.97
77106;BME280;66057;54.718;18.426;2023-06-14T11:14:01;101755.56;;;20.85;73.21
77106;BME280;66057;54.718;18.426;2023-06-14T11:16:28;101752.13;;;20.89;72.90
77106;BME280;66057;54.718;18.426;2023-06-14T11:18:54;101752.19;;;20.94;72.54
77106;BME280;66057;54.718;18.426;2023-06-14T11:21:20;101749.69;;;21.02;72.33
77106;BME280;66057;54.718;18.426;2023-06-14T11:23:52;101750.47;;;20.96;71.93
77106;BME280;66057;54.718;18.426;2023-06-14T11:26:28;101751.31;;;20.94;72.07
77106;BME280;66057;54.718;18.426;2023-06-14T11:28:56;101752.06;;;20.85;72.70
77106;BME280;66057;54.718;18.426;2023-06-14T11:31:22;101752.66;;;20.67;72.17
77106;BME280;66057;54.718;18.426;2023-06-14T11:33:55;101749.75;;;20.48;71.67
77106;BME280;66057;54.718;18.426;2023-06-14T11:36:23;101754.97;;;20.49;73.32
77106;BME280;66057;54.718;18.426;2023-06-14T11:38:49;101752.22;;;20.40;72.60
77106;BME280;66057;54.718;18.426;2023-06-14T11:41:15;101759.81;;;20.29;73.43
77106;BME280;66057;54.718;18.426;2023-06-14T11:43:41;101755.13;;;20.57;74.10
77106;BME280;66057;54.718;18.426;2023-06-14T11:46:13;101748.44;;;20.77;72.28
77106;BME280;66057;54.718;18.426;2023-06-14T11:48:43;101747.78;;;20.92;73.33
77106;BME280;66057;54.718;18.426;2023-06-14T11:51:09;101744.16;;;20.80;73.86
77106;BME280;66057;54.718;18.426;2023-06-14T11:53:35;101757.59;;;20.49;74.08
77106;BME280;66057;54.718;18.426;2023-06-14T11:56:01;101745.19;;;20.36;74.45
77106;BME280;66057;54.718;18.426;2023-06-14T11:58:27;101744.25;;;20.34;73.71
77106;BME280;66057;54.718;18.426;2023-06-14T12:00:54;101751.72;;;20.13;74.90
77106;BME280;66057;54.718;18.426;2023-06-14T12:03:24;101752.56;;;20.12;74.38
77106;BME280;66057;54.718;18.426;2023-06-14T12:06:07;101745.28;;;19.94;74.78
77106;BME280;66057;54.718;18.426;2023-06-14T12:08:37;101741.13;;;20.03;75.36
77106;BME280;66057;54.718;18.426;2023-06-14T12:11:11;101746.25;;;19.99;75.29
77106;BME280;66057;54.718;18.426;2023-06-14T12:13:41;101747.94;;;20.45;75.12
77106;BME280;66057;54.718;18.426;2023-06-14T12:16:11;101751.06;;;20.26;74.12
77106;BME280;66057;54.718;18.426;2023-06-14T12:18:38;101741.91;;;19.99;75.35
77106;BME280;66057;54.718;18.426;2023-06-14T12:21:08;101745.13;;;19.86;75.90
77106;BME280;66057;54.718;18.426;2023-06-14T12:23:48;101751.22;;;19.85;75.26
77106;BME280;66057;54.718;18.426;2023-06-14T12:26:18;101740.06;;;19.94;74.93
77106;BME280;66057;54.718;18.426;2023-06-14T12:28:46;101741.88;;;20.46;74.62
77106;BME280;66057;54.718;18.426;2023-06-14T12:31:13;101740.31;;;20.57;74.26
77106;BME280;66057;54.718;18.426;2023-06-14T12:33:40;101729.41;;;20.87;73.04
77106;BME280;66057;54.718;18.426;2023-06-14T12:36:08;101732.84;;;20.83;74.09
77106;BME280;66057;54.718;18.426;2023-06-14T12:38:35;101741.47;;;20.77;74.50
77106;BME280;66057;54.718;18.426;2023-06-14T12:41:00;101731.00;;;20.74;74.20
77106;BME280;66057;54.718;18.426;2023-06-14T12:43:27;101739.03;;;20.88;73.26
77106;BME280;66057;54.718;18.426;2023-06-14T12:45:53;101730.19;;;21.42;72.06
77106;BME280;66057;54.718;18.426;2023-06-14T12:48:19;101734.66;;;22.33;69.25
77106;BME280;66057;54.718;18.426;2023-06-14T12:50:45;101725.38;;;22.75;68.62
77106;BME280;66057;54.718;18.426;2023-06-14T12:53:11;101725.03;;;22.32;70.02